sensor_id;sensor_type;location;lat;lon;timestamp;pressure;altitude;pressure_sealevel;temperature;humidity
80128;BME280;69440;52.118;5.408;2023-06-10T00:00:44;101611.66;;;21.72;49.52
80128;BME280;69440;52.118;5.408;2023-06-10T00:03:10;101617.03;;;21.74;49.01
80128;BME280;69440;52.118;5.408;2023-06-10T00:05:37;101615.41;;;21.71;49.53
80128;BME280;69440;52.118;5.408;2023-06-10T00:08:05;101609.66;;;21.64;49.25
80128;BME280;69440;52.118;5.408;2023-06-10T00:10:37;101620.44;;;21.66;49.18
80128;BME280;69440;52.118;5.408;2023-06-10T00:13:04;101616.84;;;21.56;48.87
80128;BME280;69440;52.118;5.408;2023-06-10T00:15:31;101624.19;;;21.55;49.63
80128;BME280;69440;52.118;5.408;2023-06-10T00:17:57;101613.69;;;21.51;49.21
80128;BME280;69440;52.118;5.408;2023-06-10T00:20:24;101616.41;;;21.51;49.91
80128;BME280;69440;52.118;5.408;2023-06-10T00:22:51;101615.97;;;21.46;49.85
80128;BME280;69440;52.118;5.408;2023-06-10T00:25:18;101623.00;;;21.38;50.07
80128;BME280;69440;52.118;5.408;2023-06-10T00:27:45;101634.50;;;21.32;49.49
80128;BME280;69440;52.118;5.408;2023-06-10T00:30:12;101629.19;;;21.31;49.82
80128;BME280;69440;52.118;5.408;2023-06-10T00:32:38;101624.72;;;21.30;49.22
80128;BME280;69440;52.118;5.408;2023-06-10T00:35:05;101628.47;;;21.29;49.36
80128;BME280;69440;52.118;5.408;2023-06-10T00:37:33;101620.69;;;21.24;48.83
80128;BME280;69440;52.118;5.408;2023-06-10T00:40:05;101624.53;;;21.22;49.46
80128;BME280;69440;52.118;5.408;2023-06-10T00:42:31;101629.56;;;21.17;48.70
80128;BME280;69440;52.118;5.408;2023-06-10T00:44:58;101628.56;;;21.18;49.33
80128;BME280;69440;52.118;5.408;2023-06-10T00:47:25;101632.16;;;21.18;48.33
80128;BME280;69440;52.118;5.408;2023-06-10T00:49:52;101638.03;;;21.14;49.37
80128;BME280;69440;52.118;5.408;2023-06-10T00:52:19;101639.59;;;21.06;47.66
80128;BME280;69440;52.118;5.408;2023-06-10T00:54:46;101627.78;;;21.06;49.75
80128;BME280;69440;52.118;5.408;2023-06-10T00:57:13;101634.41;;;21.03;49.18
80128;BME280;69440;52.118;5.408;2023-06-10T00:59:41;101628.19;;;21.01;48.09
80128;BME280;69440;52.118;5.408;2023-06-10T01:02:07;101630.22;;;20.99;47.29
80128;BME280;69440;52.118;5.408;2023-06-10T01:04:35;101632.09;;;20.99;48.08
80128;BME280;69440;52.118;5.408;2023-06-10T01:07:33;101630.06;;;21.01;48.32
80128;BME280;69440;52.118;5.408;2023-06-10T01:10:08;101627.75;;;20.96;47.95
80128;BME280;69440;52.118;5.408;2023-06-10T01:12:49;101632.22;;;20.97;47.48
80128;BME280;69440;52.118;5.408;2023-06-10T01:15:18;101638.97;;;20.93;48.13
80128;BME280;69440;52.118;5.408;2023-06-10T01:17:55;101641.84;;;20.92;47.91
80128;BME280;69440;52.118;5.408;2023-06-10T01:20:26;101641.06;;;20.80;49.42
80128;BME280;69440;52.118;5.408;2023-06-10T01:22:56;101640.59;;;20.75;48.64
80128;BME280;69440;52.118;5.408;2023-06-10T01:25:25;101640.59;;;20.75;48.36
80128;BME280;69440;52.118;5.408;2023-06-10T01:28:14;101645.06;;;20.76;48.17
80128;BME280;69440;52.118;5.408;2023-06-10T01:33:38;101650.53;;;20.76;47.59
80128;BME280;69440;52.118;5.408;2023-06-10T01:36:06;101641.47;;;20.75;47.97
80128;BME280;69440;52.118;5.408;2023-06-10T01:38:37;101641.88;;;20.71;48.83
80128;BME280;69440;52.118;5.408;2023-06-10T01:41:06;101640.56;;;20.65;49.12
80128;BME280;69440;52.118;5.408;2023-06-10T01:43:38;101637.38;;;20.60;48.25
80128;BME280;69440;52.118;5.408;2023-06-10T01:46:04;101641.16;;;20.69;48.32
80128;BME280;69440;52.118;5.408;2023-06-10T01:48:32;101645.56;;;20.60;49.50
80128;BME280;69440;52.118;5.408;2023-06-10T01:50:58;101641.91;;;20.50;50.04
80128;BME280;69440;52.118;5.408;2023-06-10T01:53:25;101646.91;;;20.45;49.29
80128;BME280;69440;52.118;5.408;2023-06-10T01:55:51;101643.44;;;20.43;50.26
80128;BME280;69440;52.118;5.408;2023-06-10T01:58:17;101639.50;;;20.36;50.42
80128;BME280;69440;52.118;5.408;2023-06-10T02:00:44;101650.28;;;20.37;49.78
80128;BME280;69440;52.118;5.408;2023-06-10T02:03:11;101647.97;;;20.33;49.74
80128;BME280;69440;52.118;5.408;2023-06-10T02:05:37;101647.22;;;20.31;49.94
80128;BME280;69440;52.118;5.408;2023-06-10T02:08:04;101643.03;;;20.27;50.63
80128;BME280;69440;52.118;5.408;2023-06-10T02:10:31;101648.63;;;20.25;50.51
80128;BME280;69440;52.118;5.408;2023-06-10T02:12:57;101645.31;;;20.22;50.96
80128;BME280;69440;52.118;5.408;2023-06-10T02:15:24;101644.53;;;20.20;51.23
80128;BME280;69440;52.118;5.408;2023-06-10T02:17:51;101651.00;;;20.19;50.54
80128;BME280;69440;52.118;5.408;2023-06-10T02:20:18;101652.13;;;20.16;51.29
80128;BME280;69440;52.118;5.408;2023-06-10T02:22:45;101651.69;;;20.11;51.41
80128;BME280;69440;52.118;5.408;2023-06-10T02:25:11;101649.34;;;20.06;51.95
80128;BME280;69440;52.118;5.408;2023-06-10T02:27:38;101657.81;;;20.03;52.15
80128;BME280;69440;52.118;5.408;2023-06-10T02:30:05;101653.22;;;20.04;52.04
80128;BME280;69440;52.118;5.408;2023-06-10T02:32:31;101658.81;;;20.02;51.96
80128;BME280;69440;52.118;5.408;2023-06-10T02:34:58;101654.22;;;20.03;52.12
80128;BME280;69440;52.118;5.408;2023-06-10T02:37:26;101660.81;;;20.00;52.40
80128;BME280;69440;52.118;5.408;2023-06-10T02:39:52;101665.19;;;19.92;53.02
80128;BME280;69440;52.118;5.408;2023-06-10T02:42:19;101664.56;;;19.88;52.70
80128;BME280;69440;52.118;5.408;2023-06-10T02:44:45;101661.81;;;19.88;53.27
80128;BME280;69440;52.118;5.408;2023-06-10T02:47:12;101665.53;;;19.87;53.56
80128;BME280;69440;52.118;5.408;2023-06-10T02:49:38;101668.81;;;19.81;53.68
80128;BME280;69440;52.118;5.408;2023-06-10T02:52:05;101665.13;;;19.71;53.99
80128;BME280;69440;52.118;5.408;2023-06-10T02:54:33;101661.66;;;19.69;54.27
80128;BME280;69440;52.118;5.408;2023-06-10T02:56:59;101661.78;;;19.67;54.77
80128;BME280;69440;52.118;5.408;2023-06-10T02:59:26;101663.66;;;19.67;54.15
80128;BME280;69440;52.118;5.408;2023-06-10T03:01:54;101663.78;;;19.65;55.11
80128;BME280;69440;52.118;5.408;2023-06-10T03:04:21;101671.09;;;19.65;53.97
80128;BME280;69440;52.118;5.408;2023-06-10T03:06:50;101670.63;;;19.60;54.47
80128;BME280;69440;52.118;5.408;2023-06-10T03:09:16;101662.81;;;19.55;54.98
80128;BME280;69440;52.118;5.408;2023-06-10T03:11:42;101661.44;;;19.61;54.53
80128;BME280;69440;52.118;5.408;2023-06-10T03:14:09;101665.41;;;19.57;55.50
80128;BME280;69440;52.118;5.408;2023-06-10T03:16:35;101664.16;;;19.49;55.43
80128;BME280;69440;52.118;5.408;2023-06-10T03:19:06;101668.41;;;19.42;56.38
80128;BME280;69440;52.118;5.408;2023-06-10T03:21:36;101663.47;;;19.36;56.26
80128;BME280;69440;52.118;5.408;2023-06-10T03:24:04;101667.31;;;19.34;56.08
80128;BME280;69440;52.118;5.408;2023-06-10T03:26:30;101666.44;;;19.33;56.10
80128;BME280;69440;52.118;5.408;2023-06-10T03:28:57;101674.50;;;19.35;56.10
80128;BME280;69440;52.118;5.408;2023-06-10T03:31:23;101670.91;;;19.34;55.50
80128;BME280;69440;52.118;5.408;2023-06-10T03:33:51;101674.50;;;19.35;55.92
80128;BME280;69440;52.118;5.408;2023-06-10T03:36:17;101676.59;;;19.31;55.17
80128;BME280;69440;52.118;5.408;2023-06-10T03:38:44;101671.03;;;19.33;55.52
80128;BME280;69440;52.118;5.408;2023-06-10T03:41:10;101678.69;;;19.39;55.09
80128;BME280;69440;52.118;5.408;2023-06-10T03:43:37;101676.09;;;19.37;55.65
80128;BME280;69440;52.118;5.408;2023-06-10T03:46:05;101676.09;;;19.37;55.37
80128;BME280;69440;52.118;5.408;2023-06-10T03:48:31;101687.00;;;19.37;55.74
80128;BME280;69440;52.118;5.408;2023-06-10T03:50:58;101683.53;;;19.35;56.38
80128;BME280;69440;52.118;5.408;2023-06-10T03:53:24;101677.47;;;19.32;56.19
80128;BME280;69440;52.118;5.408;2023-06-10T03:55:51;101682.78;;;19.33;55.87
80128;BME280;69440;52.118;5.408;2023-06-10T03:58:17;101689.25;;;19.32;56.34
80128;BME280;69440;52.118;5.408;2023-06-10T04:00:44;101681.41;;;19.28;56.72
80128;BME280;69440;52.118;5.408;2023-06-10T04:03:11;101681.41;;;19.28;55.96
80128;BME280;69440;52.118;5.408;2023-06-10T04:05:41;101684.41;;;19.24;57.45
80128;BME280;69440;52.118;5.408;2023-06-10T04:08:08;101683.03;;;19.19;56.67
80128;BME280;69440;52.118;5.408;2023-06-10T04:10:35;101683.91;;;19.19;57.15
80128;BME280;69440;52.118;5.408;2023-06-10T04:13:02;101683.78;;;19.21;56.53
80128;BME280;69440;52.118;5.408;2023-06-10T04:15:29;101689.25;;;19.21;57.55
80128;BME280;69440;52.118;5.408;2023-06-10T04:17:59;101690.47;;;19.17;57.83
80128;BME280;69440;52.118;5.408;2023-06-10T04:20:27;101688.38;;;19.20;57.23
80128;BME280;69440;52.118;5.408;2023-06-10T04:22:53;101696.41;;;19.22;57.57
80128;BME280;69440;52.118;5.408;2023-06-10T04:25:20;101702.75;;;19.22;57.45
80128;BME280;69440;52.118;5.408;2023-06-10T04:27:46;101693.44;;;19.25;58.11
80128;BME280;69440;52.118;5.408;2023-06-10T04:30:13;101698.63;;;19.28;57.25
80128;BME280;69440;52.118;5.408;2023-06-10T04:32:40;101706.22;;;19.24;57.93
80128;BME280;69440;52.118;5.408;2023-06-10T04:35:06;101709.53;;;19.28;57.79
80128;BME280;69440;52.118;5.408;2023-06-10T04:37:34;101703.00;;;19.31;58.21
80128;BME280;69440;52.118;5.408;2023-06-10T04:40:00;101714.53;;;19.34;56.98
80128;BME280;69440;52.118;5.408;2023-06-10T04:42:26;101700.03;;;19.34;57.23
80128;BME280;69440;52.118;5.408;2023-06-10T04:44:53;101706.34;;;19.34;58.57
80128;BME280;69440;52.118;5.408;2023-06-10T04:47:19;101706.59;;;19.31;58.11
80128;BME280;69440;52.118;5.408;2023-06-10T04:49:47;101712.53;;;19.36;57.59
80128;BME280;69440;52.118;5.408;2023-06-10T04:52:14;101713.16;;;19.40;57.77
80128;BME280;69440;52.118;5.408;2023-06-10T04:54:44;101711.16;;;19.42;57.83
80128;BME280;69440;52.118;5.408;2023-06-10T04:57:10;101716.00;;;19.38;57.90
80128;BME280;69440;52.118;5.408;2023-06-10T04:59:37;101707.19;;;19.46;58.29
80128;BME280;69440;52.118;5.408;2023-06-10T05:02:04;101715.34;;;19.46;58.46
80128;BME280;69440;52.118;5.408;2023-06-10T05:04:31;101714.13;;;19.50;58.32
80128;BME280;69440;52.118;5.408;2023-06-10T05:06:58;101716.84;;;19.50;58.75
80128;BME280;69440;52.118;5.408;2023-06-10T05:09:24;101718.56;;;19.51;58.75
80128;BME280;69440;52.118;5.408;2023-06-10T05:11:52;101719.09;;;19.56;58.15
80128;BME280;69440;52.118;5.408;2023-06-10T05:14:20;101722.56;;;19.58;58.50
80128;BME280;69440;52.118;5.408;2023-06-10T05:16:50;101721.47;;;19.61;58.92
80128;BME280;69440;52.118;5.408;2023-06-10T05:19:16;101722.94;;;19.65;59.29
80128;BME280;69440;52.118;5.408;2023-06-10T05:21:44;101724.53;;;19.67;58.54
80128;BME280;69440;52.118;5.408;2023-06-10T05:24:11;101726.13;;;19.70;59.09
80128;BME280;69440;52.118;5.408;2023-06-10T05:26:38;101719.56;;;19.72;58.84
80128;BME280;69440;52.118;5.408;2023-06-10T05:29:05;101719.44;;;19.74;58.97
80128;BME280;69440;52.118;5.408;2023-06-10T05:31:31;101719.66;;;19.82;58.10
80128;BME280;69440;52.118;5.408;2023-06-10T05:33:58;101712.19;;;19.84;58.21
80128;BME280;69440;52.118;5.408;2023-06-10T05:36:24;101726.56;;;19.86;58.87
80128;BME280;69440;52.118;5.408;2023-06-10T05:38:54;101718.91;;;19.91;58.49
80128;BME280;69440;52.118;5.408;2023-06-10T05:41:20;101721.22;;;19.96;58.50
80128;BME280;69440;52.118;5.408;2023-06-10T05:43:48;101728.03;;;20.01;58.79
80128;BME280;69440;52.118;5.408;2023-06-10T05:46:14;101726.63;;;20.07;58.50
80128;BME280;69440;52.118;5.408;2023-06-10T05:48:41;101729.84;;;20.12;58.80
80128;BME280;69440;52.118;5.408;2023-06-10T05:51:07;101730.44;;;20.15;58.50
80128;BME280;69440;52.118;5.408;2023-06-10T05:53:34;101733.78;;;20.19;58.36
80128;BME280;69440;52.118;5.408;2023-06-10T05:56:00;101733.41;;;20.24;58.55
80128;BME280;69440;52.118;5.408;2023-06-10T05:58:27;101730.16;;;20.30;57.91
80128;BME280;69440;52.118;5.408;2023-06-10T06:00:54;101729.88;;;20.33;57.45
80128;BME280;69440;52.118;5.408;2023-06-10T06:03:21;101728.47;;;20.38;57.62
80128;BME280;69440;52.118;5.408;2023-06-10T06:05:48;101724.53;;;20.42;56.76
80128;BME280;69440;52.118;5.408;2023-06-10T06:08:15;101726.13;;;20.45;56.46
80128;BME280;69440;52.118;5.408;2023-06-10T06:10:45;101723.25;;;20.46;57.00
80128;BME280;69440;52.118;5.408;2023-06-10T06:13:12;101725.47;;;20.53;57.35
80128;BME280;69440;52.118;5.408;2023-06-10T06:15:38;101725.94;;;20.58;57.18
80128;BME280;69440;52.118;5.408;2023-06-10T06:18:05;101721.81;;;20.63;56.79
80128;BME280;69440;52.118;5.408;2023-06-10T06:20:31;101731.72;;;20.64;57.01
80128;BME280;69440;52.118;5.408;2023-06-10T06:22:57;101720.53;;;20.67;56.20
80128;BME280;69440;52.118;5.408;2023-06-10T06:25:24;101721.25;;;20.69;56.64
80128;BME280;69440;52.118;5.408;2023-06-10T06:27:50;101727.03;;;20.76;56.34
80128;BME280;69440;52.118;5.408;2023-06-10T06:30:17;101720.31;;;20.80;56.31
80128;BME280;69440;52.118;5.408;2023-06-10T06:32:44;101722.81;;;20.83;55.93
80128;BME280;69440;52.118;5.408;2023-06-10T06:35:11;101717.66;;;20.90;56.10
80128;BME280;69440;52.118;5.408;2023-06-10T06:37:37;101715.66;;;20.92;56.10
80128;BME280;69440;52.118;5.408;2023-06-10T06:40:04;101716.97;;;20.97;55.38
80128;BME280;69440;52.118;5.408;2023-06-10T06:42:31;101720.16;;;21.02;56.32
80128;BME280;69440;52.118;5.408;2023-06-10T06:44:57;101718.59;;;21.09;55.19
80128;BME280;69440;52.118;5.408;2023-06-10T06:47:24;101720.06;;;21.14;55.21
80128;BME280;69440;52.118;5.408;2023-06-10T06:49:51;101721.53;;;21.18;55.50
80128;BME280;69440;52.118;5.408;2023-06-10T06:52:18;101723.59;;;21.25;55.02
80128;BME280;69440;52.118;5.408;2023-06-10T06:54:45;101727.50;;;21.32;55.45
80128;BME280;69440;52.118;5.408;2023-06-10T06:57:11;101724.50;;;21.35;54.84
80128;BME280;69440;52.118;5.408;2023-06-10T06:59:38;101727.81;;;21.39;53.96
80128;BME280;69440;52.118;5.408;2023-06-10T07:02:05;101726.56;;;21.43;54.65
80128;BME280;69440;52.118;5.408;2023-06-10T07:04:31;101718.50;;;21.51;55.08
80128;BME280;69440;52.118;5.408;2023-06-10T07:06:58;101724.72;;;21.53;55.17
80128;BME280;69440;52.118;5.408;2023-06-10T07:09:24;101722.84;;;21.63;53.78
80128;BME280;69440;52.118;5.408;2023-06-10T07:11:51;101728.75;;;21.68;54.43
80128;BME280;69440;52.118;5.408;2023-06-10T07:14:17;101727.47;;;21.73;54.62
80128;BME280;69440;52.118;5.408;2023-06-10T07:16:44;101730.25;;;21.82;54.41
80128;BME280;69440;52.118;5.408;2023-06-10T07:19:12;101725.50;;;21.94;54.36
80128;BME280;69440;52.118;5.408;2023-06-10T07:21:38;101724.63;;;22.03;54.81
80128;BME280;69440;52.118;5.408;2023-06-10T07:24:05;101730.16;;;22.13;54.77
80128;BME280;69440;52.118;5.408;2023-06-10T07:26:32;101727.56;;;22.21;53.40
80128;BME280;69440;52.118;5.408;2023-06-10T07:28:58;101722.06;;;22.30;54.46
80128;BME280;69440;52.118;5.408;2023-06-10T07:31:25;101734.94;;;22.40;53.39
80128;BME280;69440;52.118;5.408;2023-06-10T07:33:51;101725.81;;;22.49;53.06
80128;BME280;69440;52.118;5.408;2023-06-10T07:36:18;101727.41;;;22.51;52.77
80128;BME280;69440;52.118;5.408;2023-06-10T07:38:44;101730.00;;;22.53;52.93
80128;BME280;69440;52.118;5.408;2023-06-10T07:41:11;101724.22;;;22.56;52.96
80128;BME280;69440;52.118;5.408;2023-06-10T07:43:37;101728.84;;;22.55;52.90
80128;BME280;69440;52.118;5.408;2023-06-10T07:46:04;101731.28;;;22.68;52.86
80128;BME280;69440;52.118;5.408;2023-06-10T07:48:32;101738.78;;;22.76;52.89
80128;BME280;69440;52.118;5.408;2023-06-10T07:51:00;101740.34;;;22.88;52.92
80128;BME280;69440;52.118;5.408;2023-06-10T07:53:27;101738.31;;;22.90;52.56
80128;BME280;69440;52.118;5.408;2023-06-10T07:55:53;101734.72;;;22.89;52.13
80128;BME280;69440;52.118;5.408;2023-06-10T07:58:20;101733.00;;;22.88;51.10
80128;BME280;69440;52.118;5.408;2023-06-10T08:00:48;101732.69;;;22.91;51.53
80128;BME280;69440;52.118;5.408;2023-06-10T08:03:14;101735.00;;;22.96;51.50
80128;BME280;69440;52.118;5.408;2023-06-10T08:05:41;101734.88;;;22.98;51.64
80128;BME280;69440;52.118;5.408;2023-06-10T08:08:07;101731.94;;;23.09;52.58
80128;BME280;69440;52.118;5.408;2023-06-10T08:10:34;101730.75;;;23.11;51.60
80128;BME280;69440;52.118;5.408;2023-06-10T08:13:01;101731.88;;;23.28;53.09
80128;BME280;69440;52.118;5.408;2023-06-10T08:15:28;101734.84;;;23.35;51.03
80128;BME280;69440;52.118;5.408;2023-06-10T08:17:54;101731.66;;;23.39;51.24
80128;BME280;69440;52.118;5.408;2023-06-10T08:20:22;101730.63;;;23.40;50.47
80128;BME280;69440;52.118;5.408;2023-06-10T08:22:49;101730.34;;;23.43;51.12
80128;BME280;69440;52.118;5.408;2023-06-10T08:25:15;101726.81;;;23.51;50.93
80128;BME280;69440;52.118;5.408;2023-06-10T08:27:42;101726.22;;;23.57;50.69
80128;BME280;69440;52.118;5.408;2023-06-10T08:30:08;101725.88;;;23.70;50.65
80128;BME280;69440;52.118;5.408;2023-06-10T08:32:36;101729.72;;;23.77;50.61
80128;BME280;69440;52.118;5.408;2023-06-10T08:35:03;101739.06;;;23.84;51.69
80128;BME280;69440;52.118;5.408;2023-06-10T08:37:30;101729.78;;;23.95;50.16
80128;BME280;69440;52.118;5.408;2023-06-10T08:39:56;101732.28;;;24.06;47.67
80128;BME280;69440;52.118;5.408;2023-06-10T08:44:55;101727.28;;;24.19;49.35
80128;BME280;69440;52.118;5.408;2023-06-10T08:47:23;101727.91;;;24.31;47.79
80128;BME280;69440;52.118;5.408;2023-06-10T08:49:51;101722.31;;;24.40;47.74
80128;BME280;69440;52.118;5.408;2023-06-10T08:52:24;101728.28;;;24.54;48.31
80128;BME280;69440;52.118;5.408;2023-06-10T08:54:59;101735.91;;;24.60;48.42
80128;BME280;69440;52.118;5.408;2023-06-10T08:57:27;101724.03;;;24.59;48.15
80128;BME280;69440;52.118;5.408;2023-06-10T08:59:53;101730.63;;;24.66;48.53
80128;BME280;69440;52.118;5.408;2023-06-10T09:02:24;101730.44;;;24.68;47.67
80128;BME280;69440;52.118;5.408;2023-06-10T09:04:51;101727.59;;;24.77;46.79
80128;BME280;69440;52.118;5.408;2023-06-10T09:07:18;101731.66;;;24.91;47.25
80128;BME280;69440;52.118;5.408;2023-06-10T09:09:45;101736.28;;;24.91;47.11
80128;BME280;69440;52.118;5.408;2023-06-10T09:12:14;101727.38;;;24.97;44.76
80128;BME280;69440;52.118;5.408;2023-06-10T09:14:42;101729.41;;;25.13;46.19
80128;BME280;69440;52.118;5.408;2023-06-10T09:17:08;101728.44;;;25.22;43.90
80128;BME280;69440;52.118;5.408;2023-06-10T09:19:35;101736.69;;;25.22;43.48
80128;BME280;69440;52.118;5.408;2023-06-10T09:22:03;101725.00;;;25.28;43.07
80128;BME280;69440;52.118;5.408;2023-06-10T09:24:29;101723.84;;;25.38;42.82
80128;BME280;69440;52.118;5.408;2023-06-10T09:27:04;101728.03;;;25.51;43.22
80128;BME280;69440;52.118;5.408;2023-06-10T09:29:31;101721.38;;;25.61;43.25
80128;BME280;69440;52.118;5.408;2023-06-10T09:31:58;101722.44;;;25.68;42.14
80128;BME280;69440;52.118;5.408;2023-06-10T09:34:25;101717.31;;;25.74;41.18
80128;BME280;69440;52.118;5.408;2023-06-10T09:36:53;101717.16;;;25.75;42.05
80128;BME280;69440;52.118;5.408;2023-06-10T09:39:19;101723.53;;;25.84;41.89
80128;BME280;69440;52.118;5.408;2023-06-10T09:41:46;101724.25;;;25.94;41.73
80128;BME280;69440;52.118;5.408;2023-06-10T09:44:17;101724.75;;;25.97;42.67
80128;BME280;69440;52.118;5.408;2023-06-10T09:46:49;101726.00;;;26.03;42.78
80128;BME280;69440;52.118;5.408;2023-06-10T09:49:17;101715.50;;;26.23;41.78
80128;BME280;69440;52.118;5.408;2023-06-10T09:51:54;101722.28;;;26.37;40.68
80128;BME280;69440;52.118;5.408;2023-06-10T09:54:21;101709.69;;;26.42;40.66
80128;BME280;69440;52.118;5.408;2023-06-10T09:56:49;101703.84;;;26.37;41.80
80128;BME280;69440;52.118;5.408;2023-06-10T09:59:16;101716.22;;;26.49;41.19
80128;BME280;69440;52.118;5.408;2023-06-10T10:01:56;101705.53;;;26.54;40.73
80128;BME280;69440;52.118;5.408;2023-06-10T10:04:24;101714.16;;;26.51;41.42
80128;BME280;69440;52.118;5.408;2023-06-10T10:06:51;101716.03;;;26.59;40.47
80128;BME280;69440;52.118;5.408;2023-06-10T10:09:18;101702.94;;;26.69;39.23
80128;BME280;69440;52.118;5.408;2023-06-10T10:11:45;101711.38;;;26.76;39.90
80128;BME280;69440;52.118;5.408;2023-06-10T10:14:13;101707.53;;;26.93;40.04
80128;BME280;69440;52.118;5.408;2023-06-10T10:16:43;101702.56;;;26.97;39.59
80128;BME280;69440;52.118;5.408;2023-06-10T10:21:52;101699.97;;;26.95;37.64
80128;BME280;69440;52.118;5.408;2023-06-10T10:24:31;101685.13;;;27.04;37.15
80128;BME280;69440;52.118;5.408;2023-06-10T10:27:07;101693.38;;;27.12;38.33
80128;BME280;69440;52.118;5.408;2023-06-10T10:29:39;101696.09;;;27.20;39.06
80128;BME280;69440;52.118;5.408;2023-06-10T10:32:07;101692.38;;;27.44;38.17
80128;BME280;69440;52.118;5.408;2023-06-10T10:34:54;101697.06;;;27.44;37.75
80128;BME280;69440;52.118;5.408;2023-06-10T10:37:25;101694.06;;;27.53;34.72
80128;BME280;69440;52.118;5.408;2023-06-10T10:39:52;101683.97;;;27.38;34.00
80128;BME280;69440;52.118;5.408;2023-06-10T10:42:19;101686.22;;;27.34;34.12
80128;BME280;69440;52.118;5.408;2023-06-10T10:44:46;101684.72;;;27.54;35.70
80128;BME280;69440;52.118;5.408;2023-06-10T10:47:13;101684.50;;;27.72;34.73
80128;BME280;69440;52.118;5.408;2023-06-10T10:49:43;101684.75;;;27.86;36.42
80128;BME280;69440;52.118;5.408;2023-06-10T10:52:12;101675.00;;;27.98;35.27
80128;BME280;69440;52.118;5.408;2023-06-10T10:54:44;101682.69;;;28.10;34.42
80128;BME280;69440;52.118;5.408;2023-06-10T10:59:58;101677.72;;;28.29;34.71
80128;BME280;69440;52.118;5.408;2023-06-10T11:02:45;101679.06;;;28.33;33.04
80128;BME280;69440;52.118;5.408;2023-06-10T11:05:14;101678.13;;;28.40;32.28
80128;BME280;69440;52.118;5.408;2023-06-10T11:07:52;101670.47;;;28.51;33.70
80128;BME280;69440;52.118;5.408;2023-06-10T11:10:31;101676.88;;;28.66;33.37
80128;BME280;69440;52.118;5.408;2023-06-10T11:12:58;101676.28;;;28.70;31.69
80128;BME280;69440;52.118;5.408;2023-06-10T11:15:28;101665.03;;;28.72;32.58
80128;BME280;69440;52.118;5.408;2023-06-10T11:18:28;101655.41;;;28.68;33.14
80128;BME280;69440;52.118;5.408;2023-06-10T11:21:00;101659.06;;;28.83;33.90
80128;BME280;69440;52.118;5.408;2023-06-10T11:26:10;101658.50;;;29.02;32.85
80128;BME280;69440;52.118;5.408;2023-06-10T11:28:41;101652.84;;;29.25;30.67
80128;BME280;69440;52.118;5.408;2023-06-10T11:31:09;101649.50;;;29.45;30.85
80128;BME280;69440;52.118;5.408;2023-06-10T11:33:46;101649.25;;;29.61;31.38
80128;BME280;69440;52.118;5.408;2023-06-10T11:36:14;101650.72;;;29.57;31.00
80128;BME280;69440;52.118;5.408;2023-06-10T11:38:41;101646.25;;;29.77;31.81
80128;BME280;69440;52.118;5.408;2023-06-10T11:41:08;101643.69;;;29.76;29.93
80128;BME280;69440;52.118;5.408;2023-06-10T11:43:36;101642.03;;;29.81;30.13
80128;BME280;69440;52.118;5.408;2023-06-10T11:46:02;101631.41;;;29.85;30.57
80128;BME280;69440;52.118;5.408;2023-06-10T11:48:29;101645.03;;;30.01;30.22
80128;BME280;69440;52.118;5.408;2023-06-10T11:50:56;101636.53;;;30.03;30.42
80128;BME280;69440;52.118;5.408;2023-06-10T11:53:23;101634.06;;;30.14;30.97
80128;BME280;69440;52.118;5.408;2023-06-10T11:55:50;101632.59;;;30.40;29.74
80128;BME280;69440;52.118;5.408;2023-06-10T11:58:21;101632.13;;;30.36;30.04
80128;BME280;69440;52.118;5.408;2023-06-10T12:00:49;101635.44;;;30.53;29.76
80128;BME280;69440;52.118;5.408;2023-06-10T12:03:17;101640.81;;;30.54;28.72
80128;BME280;69440;52.118;5.408;2023-06-10T12:08:24;101626.31;;;30.59;28.56
80128;BME280;69440;52.118;5.408;2023-06-10T12:10:51;101623.72;;;30.79;28.43
80128;BME280;69440;52.118;5.408;2023-06-10T12:13:17;101626.72;;;30.84;28.67
80128;BME280;69440;52.118;5.408;2023-06-10T12:15:44;101613.28;;;30.87;27.29
80128;BME280;69440;52.118;5.408;2023-06-10T12:18:18;101615.09;;;31.02;29.25
80128;BME280;69440;52.118;5.408;2023-06-10T12:20:45;101606.53;;;31.03;28.54
80128;BME280;69440;52.118;5.408;2023-06-10T12:23:13;101610.91;;;31.19;29.23
80128;BME280;69440;52.118;5.408;2023-06-10T12:25:52;101600.94;;;31.31;29.48
80128;BME280;69440;52.118;5.408;2023-06-10T12:28:22;101597.09;;;31.32;28.28
80128;BME280;69440;52.118;5.408;2023-06-10T12:30:49;101599.25;;;31.43;27.13
80128;BME280;69440;52.118;5.408;2023-06-10T12:33:21;101595.81;;;31.35;27.34
80128;BME280;69440;52.118;5.408;2023-06-10T12:35:49;101601.81;;;31.38;27.69
80128;BME280;69440;52.118;5.408;2023-06-10T12:38:23;101605.22;;;31.40;28.36
80128;BME280;69440;52.118;5.408;2023-06-10T12:40:51;101603.75;;;31.51;28.13
80128;BME280;69440;52.118;5.408;2023-06-10T12:43:22;101596.94;;;31.54;28.20
80128;BME280;69440;52.118;5.408;2023-06-10T12:45:49;101596.06;;;31.53;27.31
80128;BME280;69440;52.118;5.408;2023-06-10T12:48:23;101598.03;;;31.66;27.58
80128;BME280;69440;52.118;5.408;2023-06-10T12:50:53;101597.03;;;31.87;26.46
80128;BME280;69440;52.118;5.408;2023-06-10T12:53:20;101597.66;;;31.82;27.85
80128;BME280;69440;52.118;5.408;2023-06-10T12:55:47;101595.69;;;31.69;26.63
80128;BME280;69440;52.118;5.408;2023-06-10T12:58:13;101594.66;;;31.84;26.38
80128;BME280;69440;52.118;5.408;2023-06-10T13:00:40;101595.53;;;31.84;25.89
80128;BME280;69440;52.118;5.408;2023-06-10T13:03:09;101594.22;;;31.80;26.51
80128;BME280;69440;52.118;5.408;2023-06-10T13:05:36;101592.53;;;31.92;26.68
80128;BME280;69440;52.118;5.408;2023-06-10T13:08:05;101590.84;;;31.85;26.93
80128;BME280;69440;52.118;5.408;2023-06-10T13:10:33;101586.97;;;31.86;25.85